createdAt,value
2023-02-04T00:00:01.425Z,12.50
2023-02-04T00:02:03.177Z,12.49
2023-02-04T00:04:05.488Z,12.52
2023-02-04T00:06:07.626Z,12.48
2023-02-04T00:08:10.101Z,12.38
2023-02-04T00:10:11.991Z,12.40
2023-02-04T00:12:14.344Z,12.46
2023-02-04T00:14:16.132Z,12.44
2023-02-04T00:16:17.991Z,12.42
2023-02-04T00:18:21.990Z,12.39
2023-02-04T00:20:24.547Z,12.40
2023-02-04T00:22:29.443Z,12.43
2023-02-04T00:24:31.581Z,12.43
2023-02-04T00:26:33.353Z,12.45
2023-02-04T00:28:35.348Z,12.48
2023-02-04T00:30:37.160Z,12.48
2023-02-04T00:32:38.934Z,12.40
2023-02-04T00:34:41.341Z,12.36
2023-02-04T00:36:43.145Z,12.43
2023-02-04T00:38:45.082Z,12.37
2023-02-04T00:40:47.429Z,12.43
2023-02-04T00:42:52.167Z,12.40
2023-02-04T00:44:54.603Z,12.36
2023-02-04T00:46:57.404Z,12.34
2023-02-04T00:48:59.366Z,12.39
2023-02-04T00:51:03.986Z,12.34
2023-02-04T00:53:06.966Z,12.29
2023-02-04T00:55:10.632Z,12.31
2023-02-04T00:57:15.824Z,12.34
2023-02-04T00:59:17.616Z,12.33
2023-02-04T01:01:19.735Z,12.32
2023-02-04T01:03:21.941Z,12.35
2023-02-04T01:05:23.895Z,12.43
2023-02-04T01:07:25.940Z,12.36
2023-02-04T01:09:27.924Z,12.32
2023-02-04T01:11:31.575Z,12.37
2023-02-04T01:13:33.413Z,12.38
2023-02-04T01:15:35.722Z,12.41
2023-02-04T01:17:37.488Z,12.46
2023-02-04T01:19:39.639Z,12.39
2023-02-04T01:21:41.466Z,12.29
2023-02-04T01:23:43.320Z,12.39
2023-02-04T01:25:45.182Z,12.46
2023-02-04T01:27:47.424Z,12.50
2023-02-04T01:29:49.593Z,12.50
2023-02-04T01:31:51.530Z,12.52
2023-02-04T01:33:53.383Z,12.50
2023-02-04T01:35:55.279Z,12.52
2023-02-04T01:37:57.504Z,12.53
2023-02-04T01:40:01.330Z,12.55
2023-02-04T01:42:04.026Z,12.60
2023-02-04T01:44:06.733Z,12.61
2023-02-04T01:46:09.453Z,12.65
2023-02-04T01:48:13.184Z,12.61
2023-02-04T01:50:18.713Z,12.64
2023-02-04T01:52:21.953Z,12.69
2023-02-04T01:54:24.815Z,12.64
2023-02-04T01:56:29.681Z,12.65
2023-02-04T01:58:33.731Z,12.64
2023-02-04T02:00:35.654Z,12.64
2023-02-04T02:02:42.650Z,12.69
2023-02-04T02:04:44.561Z,12.67
2023-02-04T02:06:52.492Z,12.68
2023-02-04T02:08:58.455Z,12.71
2023-02-04T02:11:00.586Z,12.68
2023-02-04T02:13:02.525Z,12.69
2023-02-04T02:15:05.471Z,12.65
2023-02-04T02:17:07.269Z,12.72
2023-02-04T02:19:15.568Z,12.72
2023-02-04T02:21:24.631Z,12.67
2023-02-04T02:23:32.612Z,12.67
2023-02-04T02:25:34.366Z,12.71
2023-02-04T02:27:36.562Z,12.74
2023-02-04T02:29:41.366Z,12.69
2023-02-04T02:31:43.364Z,12.68
2023-02-04T02:33:45.476Z,12.72
2023-02-04T02:35:48.479Z,12.72
2023-02-04T02:37:50.365Z,12.72
2023-02-04T02:39:52.228Z,12.73
2023-02-04T02:41:55.912Z,12.70
2023-02-04T02:43:58.041Z,12.70
2023-02-04T02:46:01.906Z,12.67
2023-02-04T02:48:04.050Z,12.67
2023-02-04T02:50:06.637Z,12.64
2023-02-04T02:52:12.161Z,12.66
2023-02-04T02:54:21.727Z,12.67
2023-02-04T02:56:23.846Z,12.65
2023-02-04T02:58:32.399Z,12.68
2023-02-04T03:00:34.519Z,12.69
2023-02-04T03:02:36.495Z,12.67
2023-02-04T03:04:42.929Z,12.67
2023-02-04T03:06:45.242Z,12.59
2023-02-04T03:08:50.345Z,12.60
2023-02-04T03:10:52.452Z,12.59
2023-02-04T03:12:54.363Z,12.60
2023-02-04T03:14:56.328Z,12.59
2023-02-04T03:16:59.482Z,12.58
2023-02-04T03:19:02.439Z,12.57
2023-02-04T03:21:07.561Z,12.61
2023-02-04T03:23:09.465Z,12.63
2023-02-04T03:25:11.277Z,12.60
2023-02-04T03:27:15.361Z,12.61
2023-02-04T03:29:17.442Z,12.64
2023-02-04T03:31:19.377Z,12.64
2023-02-04T03:33:21.702Z,12.61
2023-02-04T03:35:26.398Z,12.65
2023-02-04T03:37:28.210Z,12.64
2023-02-04T03:39:30.419Z,12.60
2023-02-04T03:41:32.150Z,12.59
2023-02-04T03:43:36.399Z,12.58
2023-02-04T03:45:45.234Z,12.55
2023-02-04T03:47:47.655Z,12.55
2023-02-04T03:49:49.487Z,12.55
2023-02-04T03:51:51.465Z,12.47
2023-02-04T03:53:53.235Z,12.52
2023-02-04T03:55:55.025Z,12.59
2023-02-04T03:57:56.895Z,12.63
2023-02-04T03:59:58.755Z,12.58
2023-02-04T04:02:00.997Z,12.59
2023-02-04T04:04:02.946Z,12.57
2023-02-04T04:06:06.477Z,12.58
2023-02-04T04:08:08.423Z,12.55
2023-02-04T04:10:12.764Z,12.48
2023-02-04T04:12:14.606Z,12.56
2023-02-04T04:14:16.531Z,12.48
2023-02-04T04:16:18.644Z,12.55
2023-02-04T04:18:20.541Z,12.57
2023-02-04T04:20:25.507Z,12.64
2023-02-04T04:22:27.757Z,12.55
2023-02-04T04:24:29.650Z,12.63
2023-02-04T04:26:31.461Z,12.56
2023-02-04T04:28:33.556Z,12.54
2023-02-04T04:30:35.423Z,12.59
2023-02-04T04:32:37.272Z,12.57
2023-02-04T04:34:39.512Z,12.58
2023-02-04T04:36:41.481Z,12.55
2023-02-04T04:38:45.661Z,12.58
2023-02-04T04:40:47.409Z,12.64
2023-02-04T04:42:49.186Z,12.65
2023-02-04T04:44:50.991Z,12.54
2023-02-04T04:46:52.869Z,12.61
2023-02-04T04:48:55.216Z,12.61
2023-02-04T04:50:58.354Z,12.64
2023-02-04T04:53:00.132Z,12.69
2023-02-04T04:55:01.977Z,12.65
2023-02-04T04:57:04.231Z,12.63
2023-02-04T04:59:05.983Z,12.64
2023-02-04T05:01:07.783Z,12.59
2023-02-04T05:03:09.668Z,12.58
2023-02-04T05:05:12.577Z,12.43
2023-02-04T05:07:14.446Z,12.54
2023-02-04T05:09:17.670Z,12.47
2023-02-04T05:11:19.754Z,12.54
2023-02-04T05:13:24.362Z,12.57
2023-02-04T05:15:26.508Z,12.54
2023-02-04T05:17:28.779Z,12.41
2023-02-04T05:19:30.988Z,12.48
2023-02-04T05:21:32.774Z,12.50
2023-02-04T05:23:36.656Z,12.46
2023-02-04T05:25:41.516Z,12.49
2023-02-04T05:27:44.533Z,12.39
2023-02-04T05:29:46.389Z,12.43
2023-02-04T05:31:48.203Z,12.48
2023-02-04T05:33:50.059Z,12.52
2023-02-04T05:35:51.943Z,12.50
2023-02-04T05:37:53.747Z,12.45
2023-02-04T05:39:55.579Z,12.44
2023-02-04T05:41:57.777Z,12.42
2023-02-04T05:43:59.590Z,12.38
2023-02-04T05:46:01.998Z,12.43
2023-02-04T05:48:04.496Z,12.43
2023-02-04T05:50:07.420Z,12.46
2023-02-04T05:52:09.174Z,12.48
2023-02-04T05:54:11.343Z,12.45
2023-02-04T05:56:13.115Z,12.45
2023-02-04T05:58:14.936Z,12.41
2023-02-04T06:00:17.343Z,12.44
2023-02-04T06:02:19.661Z,12.45
2023-02-04T06:04:22.031Z,12.36
2023-02-04T06:06:26.345Z,12.38
2023-02-04T06:08:30.564Z,12.41
2023-02-04T06:10:33.039Z,12.36
2023-02-04T06:12:35.454Z,12.36
2023-02-04T06:14:37.273Z,12.38
2023-02-04T06:16:39.642Z,12.34
2023-02-04T06:18:45.449Z,12.43
2023-02-04T06:20:47.285Z,12.27
2023-02-04T06:22:51.772Z,12.35
2023-02-04T06:24:53.660Z,12.30
2023-02-04T06:26:55.446Z,12.30
2023-02-04T06:28:57.649Z,12.32
2023-02-04T06:30:59.744Z,12.32
2023-02-04T06:33:01.601Z,12.33
2023-02-04T06:35:03.467Z,12.30
2023-02-04T06:37:05.268Z,12.33
2023-02-04T06:39:07.027Z,12.37
2023-02-04T06:41:08.790Z,12.34
2023-02-04T06:43:10.563Z,12.39
2023-02-04T06:45:12.729Z,12.21
2023-02-04T06:47:14.595Z,12.27
2023-02-04T06:49:16.345Z,12.28
2023-02-04T06:51:18.487Z,12.30
2023-02-04T06:53:20.264Z,12.25
2023-02-04T06:55:22.035Z,12.26
2023-02-04T06:57:23.900Z,12.28
2023-02-04T06:59:29.495Z,12.30
2023-02-04T07:01:33.936Z,12.35
2023-02-04T07:03:35.716Z,12.24
2023-02-04T07:05:37.551Z,12.26
2023-02-04T07:07:39.695Z,12.26
2023-02-04T07:09:42.599Z,12.29
2023-02-04T07:11:44.432Z,12.30
2023-02-04T07:13:46.197Z,12.27
2023-02-04T07:15:47.998Z,12.29
2023-02-04T07:17:50.146Z,12.31
2023-02-04T07:19:52.991Z,12.33
2023-02-04T07:21:57.179Z,12.33
2023-02-04T07:23:59.592Z,12.28
2023-02-04T07:26:03.471Z,12.19
2023-02-04T07:28:06.204Z,12.21
2023-02-04T07:30:09.637Z,12.26
2023-02-04T07:32:11.468Z,12.29
2023-02-04T07:34:14.568Z,12.29
2023-02-04T07:36:16.326Z,12.23
2023-02-04T07:38:18.191Z,12.23
2023-02-04T07:40:22.031Z,12.12
2023-02-04T07:42:26.158Z,12.10
2023-02-04T07:44:28.160Z,12.20
2023-02-04T07:46:30.827Z,12.17
2023-02-04T07:48:32.752Z,12.18
2023-02-04T07:50:35.124Z,12.17
2023-02-04T07:52:37.237Z,12.19
2023-02-04T07:54:39.421Z,12.18
2023-02-04T07:56:41.533Z,12.26
2023-02-04T07:58:43.394Z,12.26
2023-02-04T08:00:45.271Z,12.27
2023-02-04T08:02:47.510Z,12.19
2023-02-04T08:04:49.333Z,12.19
2023-02-04T08:06:51.205Z,12.27
2023-02-04T08:08:53.515Z,12.25
2023-02-04T08:10:55.384Z,12.23
2023-02-04T08:12:57.683Z,12.23
2023-02-04T08:15:00.103Z,12.21
2023-02-04T08:17:01.941Z,12.26
2023-02-04T08:19:04.415Z,12.29
2023-02-04T08:21:06.548Z,12.28
2023-02-04T08:23:09.118Z,12.26
2023-02-04T08:25:12.917Z,12.25
2023-02-04T08:27:14.902Z,12.22
2023-02-04T08:29:16.727Z,12.21
2023-02-04T08:31:18.998Z,12.24
2023-02-04T08:33:22.327Z,12.24
2023-02-04T08:35:24.301Z,12.27
2023-02-04T08:37:26.457Z,12.24
2023-02-04T08:39:28.410Z,12.26
2023-02-04T08:41:30.895Z,12.29
2023-02-04T08:43:32.690Z,12.37
2023-02-04T08:45:34.470Z,12.40
2023-02-04T08:47:38.600Z,12.25
2023-02-04T08:49:40.464Z,12.37
2023-02-04T08:51:42.485Z,12.37
2023-02-04T08:53:44.569Z,12.36
2023-02-04T08:55:48.664Z,12.26
2023-02-04T08:57:50.554Z,12.29
2023-02-04T08:59:52.460Z,12.25
2023-02-04T09:01:54.443Z,12.26
2023-02-04T09:03:56.346Z,12.28
2023-02-04T09:05:58.284Z,12.28
2023-02-04T09:08:00.154Z,12.11
2023-02-04T09:10:04.737Z,12.15
2023-02-04T09:12:06.688Z,12.04
2023-02-04T09:14:08.838Z,12.17
2023-02-04T09:16:10.960Z,12.18
2023-02-04T09:18:16.852Z,12.20
2023-02-04T09:20:19.005Z,12.20
2023-02-04T09:22:20.816Z,12.21
2023-02-04T09:24:24.801Z,12.23
2023-02-04T09:26:26.614Z,12.22
2023-02-04T09:28:28.560Z,12.29
2023-02-04T09:30:31.272Z,12.29
2023-02-04T09:32:33.700Z,12.21
2023-02-04T09:34:35.565Z,12.26
2023-02-04T09:36:39.074Z,12.28
2023-02-04T09:38:41.186Z,12.34
2023-02-04T09:40:54.797Z,12.39
2023-02-04T09:42:56.798Z,12.42
2023-02-04T09:45:00.856Z,12.42
2023-02-04T09:47:03.338Z,12.47
2023-02-04T09:49:08.285Z,12.49
2023-02-04T09:51:16.606Z,12.43
2023-02-04T09:53:23.632Z,12.36
2023-02-04T09:55:32.131Z,12.42
2023-02-04T09:57:34.452Z,12.39
2023-02-04T09:59:36.344Z,12.42
2023-02-04T10:01:40.372Z,12.47
2023-02-04T10:03:47.005Z,12.51
2023-02-04T10:05:50.573Z,12.53
2023-02-04T10:07:52.584Z,12.58
2023-02-04T10:09:55.300Z,12.60
2023-02-04T10:12:01.065Z,12.33
2023-02-04T10:14:03.059Z,12.51
2023-02-04T10:16:14.870Z,12.54
2023-02-04T10:18:27.252Z,12.56
2023-02-04T10:20:29.332Z,12.60
2023-02-04T10:22:31.614Z,12.64
2023-02-04T10:24:34.772Z,12.69
2023-02-04T10:26:37.012Z,12.75
2023-02-04T10:28:40.520Z,12.82
2023-02-04T10:30:43.968Z,12.84
2023-02-04T10:32:46.445Z,12.89
2023-02-04T10:34:50.476Z,12.89
2023-02-04T10:36:55.840Z,12.89
2023-02-04T10:39:04.057Z,12.91
2023-02-04T10:41:06.561Z,12.92
2023-02-04T10:43:11.624Z,12.89
2023-02-04T10:45:19.804Z,12.99
2023-02-04T10:47:25.466Z,13.01
2023-02-04T10:49:27.820Z,13.07
2023-02-04T10:51:29.744Z,13.10
2023-02-04T10:53:34.829Z,13.09
2023-02-04T10:55:36.868Z,13.13
2023-02-04T10:57:41.196Z,13.21
2023-02-04T10:59:44.799Z,13.23
2023-02-04T11:01:46.757Z,13.30
2023-02-04T11:03:50.479Z,13.31
2023-02-04T11:05:58.581Z,13.31
2023-02-04T11:08:01.550Z,13.41
2023-02-04T11:10:03.796Z,13.44
2023-02-04T11:12:06.085Z,13.48
2023-02-04T11:14:24.181Z,13.43
2023-02-04T11:16:30.567Z,13.43
2023-02-04T11:18:32.656Z,13.37
2023-02-04T11:20:39.781Z,13.45
2023-02-04T11:22:45.090Z,13.38
2023-02-04T11:24:47.042Z,13.34
2023-02-04T11:26:54.081Z,13.35
2023-02-04T11:29:00.586Z,13.31
2023-02-04T11:31:04.371Z,13.35
2023-02-04T11:33:21.811Z,13.31
2023-02-04T11:35:27.690Z,13.31
2023-02-04T11:37:37.052Z,13.22
2023-02-04T11:39:42.540Z,13.27
2023-02-04T11:41:49.813Z,13.10
2023-02-04T11:43:53.401Z,13.18
2023-02-04T11:46:01.612Z,13.20
2023-02-04T11:48:13.819Z,12.99
2023-02-04T11:50:25.128Z,13.13
2023-02-04T11:52:27.018Z,13.13
2023-02-04T11:54:28.887Z,13.08
2023-02-04T11:56:30.953Z,13.03
2023-02-04T11:58:33.102Z,13.01
2023-02-04T12:00:35.081Z,13.01
2023-02-04T12:02:42.919Z,12.98
2023-02-04T12:04:51.220Z,12.96
2023-02-04T12:06:59.659Z,12.94
2023-02-04T12:09:07.825Z,12.99
2023-02-04T12:11:28.204Z,13.00
2023-02-04T12:13:32.520Z,13.08
2023-02-04T12:15:36.546Z,12.97
2023-02-04T12:17:38.704Z,13.00
2023-02-04T12:19:40.941Z,13.02
2023-02-04T12:21:43.161Z,13.00
2023-02-04T12:23:48.099Z,13.07
2023-02-04T12:25:51.127Z,13.06
2023-02-04T12:27:55.856Z,13.10
2023-02-04T12:29:57.974Z,13.01
2023-02-04T12:32:02.708Z,13.06
2023-02-04T12:34:04.599Z,13.09
2023-02-04T12:36:07.532Z,13.04
2023-02-04T12:38:10.493Z,12.98
2023-02-04T12:40:16.894Z,12.90
2023-02-04T12:42:18.970Z,12.93
2023-02-04T12:44:20.898Z,12.95
2023-02-04T12:46:25.134Z,12.78
2023-02-04T12:48:27.124Z,12.75
2023-02-04T12:50:31.178Z,12.68
2023-02-04T12:52:33.160Z,12.61
2023-02-04T12:54:35.804Z,12.56
2023-02-04T12:56:37.665Z,12.51
2023-02-04T12:58:39.619Z,12.57
2023-02-04T13:00:42.384Z,12.62
2023-02-04T13:02:44.676Z,12.51
2023-02-04T13:04:46.584Z,12.47
2023-02-04T13:06:49.200Z,12.51
2023-02-04T13:08:51.036Z,12.61
2023-02-04T13:10:53.214Z,12.69
2023-02-04T13:12:55.292Z,12.78
2023-02-04T13:14:57.269Z,12.79
2023-02-04T13:16:59.834Z,12.85
2023-02-04T13:19:01.720Z,12.90
2023-02-04T13:21:03.828Z,12.97
2023-02-04T13:23:05.759Z,12.86
2023-02-04T13:25:07.823Z,12.92
2023-02-04T13:27:15.765Z,12.91
2023-02-04T13:29:17.820Z,12.90
2023-02-04T13:31:19.961Z,12.94
2023-02-04T13:33:21.878Z,12.90
2023-02-04T13:35:25.561Z,12.90
2023-02-04T13:37:27.669Z,12.89
2023-02-04T13:39:30.051Z,12.87
2023-02-04T13:41:32.058Z,12.83
2023-02-04T13:43:34.077Z,12.80
2023-02-04T13:45:36.243Z,12.81
2023-02-04T13:47:41.033Z,12.84
2023-02-04T13:49:43.294Z,12.84
2023-02-04T13:51:45.244Z,12.87
2023-02-04T13:53:47.138Z,12.88
2023-02-04T13:55:49.221Z,12.88
2023-02-04T13:57:51.161Z,12.83
2023-02-04T13:59:53.676Z,12.79
2023-02-04T14:01:55.658Z,12.85
2023-02-04T14:03:57.926Z,12.82
2023-02-04T14:05:59.848Z,12.90
2023-02-04T14:08:01.938Z,12.90
2023-02-04T14:10:04.591Z,12.83
2023-02-04T14:12:07.056Z,12.66
2023-02-04T14:14:09.168Z,12.81
2023-02-04T14:16:11.100Z,12.82
2023-02-04T14:18:13.464Z,12.85
2023-02-04T14:20:15.501Z,12.79
2023-02-04T14:22:17.674Z,12.73
2023-02-04T14:24:20.686Z,12.81
2023-02-04T14:26:22.582Z,12.87
2023-02-04T14:28:24.604Z,12.73
2023-02-04T14:30:28.417Z,12.70
2023-02-04T14:32:30.659Z,12.68
2023-02-04T14:34:32.667Z,12.76
2023-02-04T14:36:34.584Z,12.79
2023-02-04T14:38:39.263Z,12.80
2023-02-04T14:40:41.576Z,12.71
2023-02-04T14:42:43.600Z,12.75
2023-02-04T14:44:47.675Z,12.61
2023-02-04T14:46:49.847Z,12.71
2023-02-04T14:48:54.639Z,12.72
2023-02-04T14:50:56.603Z,12.77
2023-02-04T14:52:58.649Z,12.77
2023-02-04T14:55:00.713Z,12.80
2023-02-04T14:57:02.633Z,12.75
2023-02-04T14:59:04.699Z,12.75
2023-02-04T15:01:06.646Z,12.75
2023-02-04T15:03:08.630Z,12.70
2023-02-04T15:05:11.180Z,12.75
2023-02-04T15:07:13.380Z,12.77
2023-02-04T15:09:17.527Z,12.80
2023-02-04T15:11:19.438Z,12.80
2023-02-04T15:13:21.361Z,12.73
2023-02-04T15:15:23.345Z,12.80
2023-02-04T15:17:25.288Z,12.76
2023-02-04T15:19:29.719Z,12.75
2023-02-04T15:21:31.728Z,12.81
2023-02-04T15:23:33.638Z,12.81
2023-02-04T15:25:35.719Z,12.81
2023-02-04T15:27:37.686Z,12.83
2023-02-04T15:29:39.671Z,12.83
2023-02-04T15:31:41.702Z,12.82
2023-02-04T15:33:43.780Z,12.81
2023-02-04T15:35:46.091Z,12.80
2023-02-04T15:37:49.106Z,12.85
2023-02-04T15:39:51.063Z,12.88
2023-02-04T15:41:52.935Z,12.87
2023-02-04T15:43:55.370Z,12.89
2023-02-04T15:45:57.354Z,12.87
2023-02-04T15:47:59.329Z,12.86
2023-02-04T15:50:01.333Z,12.85
2023-02-04T15:52:04.783Z,12.82
2023-02-04T15:54:09.101Z,12.86
2023-02-04T15:56:10.968Z,12.89
2023-02-04T15:58:15.208Z,12.87
2023-02-04T16:00:17.461Z,12.90
2023-02-04T16:02:22.304Z,12.92
2023-02-04T16:04:24.240Z,12.86
2023-02-04T16:06:26.075Z,12.83
2023-02-04T16:08:28.298Z,12.84
2023-02-04T16:10:30.346Z,12.88
2023-02-04T16:12:32.282Z,12.85
2023-02-04T16:14:34.378Z,12.84
2023-02-04T16:16:36.647Z,12.83
2023-02-04T16:18:38.632Z,12.80
2023-02-04T16:20:40.564Z,12.79
2023-02-04T16:22:42.847Z,12.80
2023-02-04T16:24:44.906Z,12.73
2023-02-04T16:26:47.277Z,12.73
2023-02-04T16:28:49.576Z,12.64
2023-02-04T16:30:53.865Z,12.62
2023-02-04T16:32:55.952Z,12.59
2023-02-04T16:35:00.495Z,12.38
2023-02-04T16:37:02.772Z,12.42
2023-02-04T16:39:04.818Z,12.39
2023-02-04T16:41:07.807Z,12.45
2023-02-04T16:43:09.678Z,12.44
2023-02-04T16:45:13.511Z,12.37
2023-02-04T16:47:15.455Z,12.33
2023-02-04T16:49:17.953Z,12.41
2023-02-04T16:51:20.593Z,12.42
2023-02-04T16:53:23.156Z,12.41
2023-02-04T16:55:27.829Z,12.41
2023-02-04T16:57:29.704Z,12.45
2023-02-04T16:59:32.492Z,12.52
2023-02-04T17:01:34.451Z,12.49
2023-02-04T17:03:36.409Z,12.54
2023-02-04T17:05:41.763Z,12.51
2023-02-04T17:07:43.697Z,12.56
2023-02-04T17:09:46.019Z,12.58
2023-02-04T17:11:47.962Z,12.51
2023-02-04T17:13:49.791Z,12.50
2023-02-04T17:15:52.198Z,12.43
2023-02-04T17:17:54.056Z,12.38
2023-02-04T17:19:56.040Z,12.47
2023-02-04T17:21:57.894Z,12.47
2023-02-04T17:24:04.217Z,12.41
2023-02-04T17:26:06.655Z,12.46
2023-02-04T17:28:08.633Z,12.47
2023-02-04T17:30:11.481Z,12.47
2023-02-04T17:32:16.402Z,12.51
2023-02-04T17:34:18.535Z,12.49
2023-02-04T17:36:22.640Z,12.48
2023-02-04T17:38:28.539Z,12.44
2023-02-04T17:40:31.441Z,12.32
2023-02-04T17:42:33.759Z,12.40
2023-02-04T17:44:35.761Z,12.42
2023-02-04T17:46:37.713Z,12.43
2023-02-04T17:48:39.987Z,12.45
2023-02-04T17:50:43.528Z,12.43
2023-02-04T17:52:45.705Z,12.39
2023-02-04T17:54:47.730Z,12.36
2023-02-04T17:56:50.601Z,12.33
2023-02-04T17:58:54.435Z,12.33
2023-02-04T18:00:58.114Z,12.33
2023-02-04T18:03:00.277Z,12.37
2023-02-04T18:05:13.051Z,12.14
2023-02-04T18:07:14.915Z,12.07
2023-02-04T18:09:18.749Z,12.09
2023-02-04T18:11:27.407Z,12.21
2023-02-04T18:13:33.136Z,12.23
2023-02-04T18:15:36.856Z,12.20
2023-02-04T18:17:39.191Z,12.20
2023-02-04T18:19:42.521Z,12.18
2023-02-04T18:21:45.442Z,12.20
2023-02-04T18:23:49.851Z,11.93
2023-02-04T18:25:52.381Z,12.05
2023-02-04T18:27:54.982Z,11.97
2023-02-04T18:30:00.363Z,12.02
2023-02-04T18:32:07.022Z,12.10
2023-02-04T18:34:16.960Z,12.10
2023-02-04T18:36:20.661Z,12.13
2023-02-04T18:38:27.020Z,12.00
2023-02-04T18:40:31.352Z,12.07
2023-02-04T18:42:33.309Z,12.08
2023-02-04T18:44:39.174Z,12.06
2023-02-04T18:46:46.988Z,11.94
2023-02-04T18:48:52.524Z,11.98
2023-02-04T18:50:54.950Z,11.98
2023-02-04T18:53:06.878Z,12.00
2023-02-04T18:55:15.109Z,11.99
2023-02-04T18:57:29.011Z,12.06
2023-02-04T18:59:31.293Z,12.00
2023-02-04T19:01:39.003Z,11.96
2023-02-04T19:03:47.973Z,12.04
2023-02-04T19:05:51.364Z,12.10
2023-02-04T19:08:00.101Z,12.06
2023-02-04T19:10:14.848Z,12.04
2023-02-04T19:12:22.380Z,12.04
2023-02-04T19:14:33.147Z,11.97
2023-02-04T19:16:36.829Z,11.87
2023-02-04T19:18:43.190Z,11.92
2023-02-04T19:20:45.069Z,11.77
2023-02-04T19:22:50.440Z,11.82
2023-02-04T19:24:59.345Z,11.77
2023-02-04T19:27:02.583Z,11.80
2023-02-04T19:29:10.635Z,11.73
2023-02-04T19:31:13.301Z,11.76
2023-02-04T19:33:24.114Z,11.79
2023-02-04T19:35:28.016Z,11.79
2023-02-04T19:37:36.171Z,11.82
2023-02-04T19:39:40.568Z,11.81
2023-02-04T19:41:48.713Z,11.82
2023-02-04T19:43:50.609Z,11.90
2023-02-04T19:45:54.003Z,11.95
2023-02-04T19:47:57.331Z,11.97
2023-02-04T19:50:04.238Z,11.95
2023-02-04T19:52:21.797Z,11.98
2023-02-04T19:54:32.053Z,11.96
2023-02-04T19:56:36.441Z,11.84
2023-02-04T19:58:44.947Z,11.83
2023-02-04T20:00:56.255Z,11.88
2023-02-04T20:02:58.648Z,11.88
2023-02-04T20:05:01.059Z,11.78
2023-02-04T20:07:08.189Z,11.82
2023-02-04T20:09:16.561Z,11.86
2023-02-04T20:11:22.338Z,11.85
2023-02-04T20:13:26.940Z,11.92
2023-02-04T20:15:28.894Z,11.96
2023-02-04T20:17:36.391Z,11.79
2023-02-04T20:19:39.107Z,11.89
2023-02-04T20:21:41.077Z,11.93
2023-02-04T20:23:43.056Z,11.94
2023-02-04T20:25:47.988Z,11.93
2023-02-04T20:27:57.274Z,11.95
2023-02-04T20:30:20.277Z,11.97
2023-02-04T20:32:28.123Z,11.95
2023-02-04T20:34:35.941Z,11.82
2023-02-04T20:36:42.513Z,11.83
2023-02-04T20:38:46.039Z,11.93
2023-02-04T20:40:48.097Z,11.90
2023-02-04T20:42:53.004Z,11.87
2023-02-04T20:45:01.916Z,11.87
2023-02-04T20:47:17.882Z,11.88
2023-02-04T20:49:23.850Z,11.93
2023-02-04T20:51:27.398Z,11.95
2023-02-04T20:53:37.491Z,11.92
2023-02-04T20:55:39.746Z,11.94
2023-02-04T20:57:41.523Z,11.82
2023-02-04T20:59:44.942Z,11.90
2023-02-04T21:01:49.798Z,11.94
2023-02-04T21:03:51.876Z,11.85
2023-02-04T21:05:56.212Z,11.83
2023-02-04T21:08:02.115Z,11.83
2023-02-04T21:10:04.561Z,11.91
2023-02-04T21:12:07.398Z,11.94
2023-02-04T21:14:11.761Z,11.82
2023-02-04T21:16:13.742Z,11.84
2023-02-04T21:18:15.786Z,11.92
2023-02-04T21:20:18.152Z,11.99
2023-02-04T21:22:19.982Z,11.91
2023-02-04T21:24:21.978Z,11.92
2023-02-04T21:26:26.280Z,11.84
2023-02-04T21:28:28.856Z,11.85
2023-02-04T21:30:31.228Z,11.86
2023-02-04T21:32:33.142Z,11.85
2023-02-04T21:34:35.070Z,11.83
2023-02-04T21:36:36.952Z,11.81
2023-02-04T21:38:38.927Z,11.82
2023-02-04T21:40:44.241Z,11.89
2023-02-04T21:42:46.456Z,11.91
2023-02-04T21:44:48.337Z,11.91
2023-02-04T21:46:50.184Z,11.93
2023-02-04T21:48:52.071Z,11.94
2023-02-04T21:50:56.330Z,11.93
2023-02-04T21:52:58.537Z,11.81
2023-02-04T21:55:00.367Z,11.91
2023-02-04T21:57:04.418Z,11.94
2023-02-04T21:59:06.237Z,11.87
2023-02-04T22:01:10.356Z,11.85
2023-02-04T22:03:16.069Z,11.92
2023-02-04T22:05:18.251Z,11.85
2023-02-04T22:07:20.578Z,11.93
2023-02-04T22:09:22.395Z,11.97
2023-02-04T22:11:24.302Z,11.95
2023-02-04T22:13:26.259Z,12.00
2023-02-04T22:15:28.842Z,11.96
2023-02-04T22:17:31.048Z,11.99
2023-02-04T22:19:32.887Z,11.96
2023-02-04T22:21:36.408Z,11.97
2023-02-04T22:23:39.716Z,11.99
2023-02-04T22:25:41.575Z,11.98
2023-02-04T22:27:43.457Z,12.07
2023-02-04T22:29:45.389Z,11.99
2023-02-04T22:31:47.381Z,11.98
2023-02-04T22:33:51.962Z,12.05
2023-02-04T22:35:53.831Z,11.98
2023-02-04T22:37:55.771Z,12.00
2023-02-04T22:39:58.072Z,12.06
2023-02-04T22:42:00.125Z,12.06
2023-02-04T22:44:01.978Z,12.09
2023-02-04T22:46:03.892Z,12.13
2023-02-04T22:48:07.895Z,12.06
2023-02-04T22:50:12.837Z,12.09
2023-02-04T22:52:17.321Z,12.03
2023-02-04T22:54:19.430Z,12.12
2023-02-04T22:56:21.870Z,12.07
2023-02-04T22:58:23.838Z,12.06
2023-02-04T23:00:25.753Z,12.07
2023-02-04T23:02:27.586Z,12.03
2023-02-04T23:04:29.385Z,12.05
2023-02-04T23:06:31.470Z,12.02
2023-02-04T23:08:33.292Z,11.99
2023-02-04T23:10:35.142Z,12.00
2023-02-04T23:12:37.073Z,12.08
2023-02-04T23:14:44.110Z,11.97
2023-02-04T23:16:47.303Z,11.95
2023-02-04T23:18:49.404Z,11.82
2023-02-04T23:20:51.302Z,11.89
2023-02-04T23:22:54.954Z,11.93
2023-02-04T23:24:57.741Z,11.97
2023-02-04T23:27:00.337Z,11.97
2023-02-04T23:29:04.327Z,11.98
2023-02-04T23:31:08.249Z,11.93
2023-02-04T23:33:10.974Z,11.97
2023-02-04T23:35:13.436Z,11.87
2023-02-04T23:37:15.294Z,11.93
2023-02-04T23:39:19.362Z,12.00
2023-02-04T23:41:21.116Z,12.03
2023-02-04T23:43:23.082Z,12.07
2023-02-04T23:45:25.575Z,12.10
2023-02-04T23:47:27.543Z,12.13
2023-02-04T23:49:29.519Z,12.14
2023-02-04T23:51:32.210Z,12.14
2023-02-04T23:53:34.068Z,12.15
2023-02-04T23:55:36.452Z,12.19
2023-02-04T23:57:38.724Z,12.13
2023-02-04T23:59:42.159Z,12.12
